createdAt,value
2023-03-24T00:01:07.504Z,68.30
2023-03-24T00:03:34.393Z,68.30
2023-03-24T00:06:04.514Z,68.20
2023-03-24T00:08:36.718Z,68.20
2023-03-24T00:11:06.548Z,68.20
2023-03-24T00:13:38.125Z,68.20
2023-03-24T00:16:10.816Z,68.30
2023-03-24T00:18:39.308Z,68.40
2023-03-24T00:21:07.791Z,68.30
2023-03-24T00:23:35.428Z,68.20
2023-03-24T00:26:08.886Z,68.30
2023-03-24T00:28:37.107Z,68.40
2023-03-24T00:31:05.833Z,68.40
2023-03-24T00:33:34.866Z,68.40
2023-03-24T00:36:06.965Z,68.50
2023-03-24T00:38:34.684Z,68.70
2023-03-24T00:41:02.433Z,68.60
2023-03-24T00:43:29.810Z,68.70
2023-03-24T00:46:01.912Z,68.80
2023-03-24T00:48:29.832Z,69.10
2023-03-24T00:50:57.152Z,69.20
2023-03-24T00:53:25.843Z,69.30
2023-03-24T00:55:52.477Z,69.60
2023-03-24T00:58:21.950Z,69.70
2023-03-24T01:00:54.547Z,69.90
2023-03-24T01:03:26.777Z,70.00
2023-03-24T01:06:02.350Z,69.90
2023-03-24T01:08:30.403Z,70.20
2023-03-24T01:10:57.247Z,70.10
2023-03-24T01:13:27.423Z,70.20
2023-03-24T01:15:54.922Z,70.10
2023-03-24T01:18:23.872Z,70.10
2023-03-24T01:20:51.410Z,70.00
2023-03-24T01:23:21.358Z,70.10
2023-03-24T01:25:49.123Z,70.20
2023-03-24T01:28:24.804Z,70.30
2023-03-24T01:30:54.478Z,70.30
2023-03-24T01:33:22.132Z,70.30
2023-03-24T01:35:49.246Z,70.30
2023-03-24T01:38:16.403Z,70.40
2023-03-24T01:40:46.734Z,70.40
2023-03-24T01:43:26.986Z,70.60
2023-03-24T01:46:05.268Z,70.60
2023-03-24T01:48:40.309Z,70.70
2023-03-24T01:51:15.618Z,70.60
2023-03-24T01:53:51.947Z,70.70
2023-03-24T01:56:18.983Z,70.70
2023-03-24T01:58:50.362Z,70.60
2023-03-24T02:01:17.687Z,70.60
2023-03-24T02:03:45.283Z,70.50
2023-03-24T02:06:14.684Z,70.40
2023-03-24T02:08:56.139Z,70.50
2023-03-24T02:11:25.543Z,70.60
2023-03-24T02:13:52.446Z,70.60
2023-03-24T02:16:56.408Z,70.60
2023-03-24T02:19:44.704Z,70.70
2023-03-24T02:22:26.339Z,70.70
2023-03-24T02:25:19.690Z,70.70
2023-03-24T02:28:12.716Z,70.70
2023-03-24T02:30:50.237Z,70.60
2023-03-24T02:33:54.490Z,70.60
2023-03-24T02:36:32.145Z,70.60
2023-03-24T02:39:33.378Z,70.60
2023-03-24T02:42:42.466Z,70.50
2023-03-24T02:45:18.464Z,70.30
2023-03-24T02:47:56.491Z,70.10
2023-03-24T02:51:01.922Z,70.00
2023-03-24T02:53:51.634Z,69.80
2023-03-24T02:56:37.491Z,69.60
2023-03-24T02:59:07.461Z,69.70
2023-03-24T03:01:44.656Z,69.60
2023-03-24T03:04:19.539Z,69.60
2023-03-24T03:06:53.565Z,69.40
2023-03-24T03:09:22.781Z,69.30
2023-03-24T03:11:53.320Z,69.20
2023-03-24T03:14:25.552Z,69.00
2023-03-24T03:16:59.905Z,69.00
2023-03-24T03:19:30.638Z,68.80
2023-03-24T03:21:58.602Z,68.90
2023-03-24T03:24:30.562Z,68.70
2023-03-24T03:27:01.900Z,68.80
2023-03-24T03:29:34.161Z,68.80
2023-03-24T03:32:10.237Z,68.70
2023-03-24T03:34:44.982Z,68.70
2023-03-24T03:37:47.712Z,68.70
2023-03-24T03:40:24.419Z,68.60
2023-03-24T03:42:52.088Z,68.70
2023-03-24T03:45:18.936Z,68.70
2023-03-24T03:47:46.785Z,68.80
2023-03-24T03:50:13.582Z,68.80
2023-03-24T03:52:41.562Z,68.80
2023-03-24T03:55:10.145Z,68.70
2023-03-24T03:57:36.915Z,68.70
2023-03-24T04:00:11.860Z,68.80
2023-03-24T04:03:12.394Z,68.90
2023-03-24T04:05:53.484Z,68.90
2023-03-24T04:08:33.854Z,68.80
2023-03-24T04:11:09.030Z,68.70
2023-03-24T04:13:35.820Z,68.90
2023-03-24T04:16:18.151Z,68.80
2023-03-24T04:19:11.350Z,68.90
2023-03-24T04:22:07.240Z,69.00
2023-03-24T04:24:57.891Z,69.00
2023-03-24T04:27:40.077Z,69.10
2023-03-24T04:30:16.831Z,69.10
2023-03-24T04:32:58.268Z,69.00
2023-03-24T04:35:33.931Z,69.20
2023-03-24T04:38:08.661Z,69.20
2023-03-24T04:40:41.930Z,69.10
2023-03-24T04:43:13.856Z,69.10
2023-03-24T04:45:41.703Z,69.00
2023-03-24T04:48:11.526Z,68.90
2023-03-24T04:50:39.678Z,68.80
2023-03-24T04:53:08.209Z,68.60
2023-03-24T04:55:43.625Z,68.60
2023-03-24T04:58:10.479Z,68.60
2023-03-24T05:00:37.433Z,68.40
2023-03-24T05:03:04.438Z,68.20
2023-03-24T05:05:31.119Z,67.90
2023-03-24T05:07:57.972Z,67.50
2023-03-24T05:10:24.799Z,67.30
2023-03-24T05:12:51.444Z,67.00
2023-03-24T05:15:18.184Z,66.60
2023-03-24T05:17:44.870Z,66.20
2023-03-24T05:20:11.939Z,65.90
2023-03-24T05:22:39.188Z,65.50
2023-03-24T05:25:06.849Z,65.10
2023-03-24T05:27:33.509Z,64.80
2023-03-24T05:30:00.309Z,64.60
2023-03-24T05:32:27.277Z,64.40
2023-03-24T05:34:54.021Z,64.20
2023-03-24T05:37:20.900Z,64.00
2023-03-24T05:39:47.712Z,63.90
2023-03-24T05:42:15.595Z,63.80
2023-03-24T05:44:42.341Z,63.50
2023-03-24T05:47:09.410Z,63.40
2023-03-24T05:49:36.676Z,63.30
2023-03-24T05:52:03.473Z,63.30
2023-03-24T05:54:30.148Z,63.20
2023-03-24T05:56:56.868Z,63.20
2023-03-24T05:59:23.528Z,63.30
2023-03-24T06:01:50.205Z,63.40
2023-03-24T06:04:16.839Z,63.70
2023-03-24T06:06:45.487Z,64.20
2023-03-24T06:09:14.521Z,64.60
2023-03-24T06:11:41.143Z,65.00
2023-03-24T06:14:08.823Z,65.20
2023-03-24T06:16:41.344Z,65.60
2023-03-24T06:19:08.065Z,65.90
2023-03-24T06:21:35.380Z,66.20
2023-03-24T06:24:03.149Z,66.70
2023-03-24T06:26:32.597Z,67.00
2023-03-24T06:28:59.728Z,67.30
2023-03-24T06:31:29.553Z,67.50
2023-03-24T06:33:56.258Z,67.80
2023-03-24T06:36:23.532Z,68.10
2023-03-24T06:38:51.038Z,68.40
2023-03-24T06:41:17.802Z,68.60
2023-03-24T06:43:44.409Z,68.90
2023-03-24T06:46:11.313Z,69.00
2023-03-24T06:48:39.519Z,69.10
2023-03-24T06:51:06.943Z,69.20
2023-03-24T06:53:33.801Z,69.20
2023-03-24T06:56:00.428Z,69.30
2023-03-24T06:58:27.985Z,69.40
2023-03-24T07:00:55.209Z,69.50
2023-03-24T07:03:23.477Z,69.40
2023-03-24T07:05:50.233Z,69.50
2023-03-24T07:08:34.523Z,69.30
2023-03-24T07:11:04.374Z,69.30
2023-03-24T07:13:31.045Z,69.20
2023-03-24T07:15:57.680Z,69.20
2023-03-24T07:18:24.791Z,69.10
2023-03-24T07:20:51.587Z,69.10
2023-03-24T07:23:18.302Z,69.10
2023-03-24T07:25:45.814Z,69.10
2023-03-24T07:28:12.877Z,69.10
2023-03-24T07:30:40.991Z,69.00
2023-03-24T07:33:10.786Z,69.00
2023-03-24T07:35:37.594Z,69.00
2023-03-24T07:38:04.390Z,68.90
2023-03-24T07:40:31.715Z,68.90
2023-03-24T07:43:02.690Z,68.80
2023-03-24T07:45:29.472Z,68.80
2023-03-24T07:48:01.712Z,68.70
2023-03-24T07:50:29.362Z,68.60
2023-03-24T07:52:58.626Z,68.50
2023-03-24T07:55:27.070Z,68.20
2023-03-24T07:57:53.724Z,68.20
2023-03-24T08:00:21.464Z,68.30
2023-03-24T08:02:51.973Z,68.40
2023-03-24T08:05:20.805Z,68.40
2023-03-24T08:07:53.312Z,68.30
2023-03-24T08:10:26.118Z,68.30
2023-03-24T08:12:53.221Z,68.30
2023-03-24T08:15:20.444Z,68.10
2023-03-24T08:17:49.381Z,68.10
2023-03-24T08:20:16.855Z,68.10
2023-03-24T08:22:45.736Z,68.20
2023-03-24T08:25:13.177Z,68.10
2023-03-24T08:27:43.347Z,68.20
2023-03-24T08:30:11.164Z,68.40
2023-03-24T08:32:37.917Z,68.40
2023-03-24T08:35:05.190Z,68.50
2023-03-24T08:37:31.893Z,68.70
2023-03-24T08:39:58.921Z,68.80
2023-03-24T08:42:26.104Z,68.90
2023-03-24T08:44:53.084Z,68.90
2023-03-24T08:47:19.705Z,69.00
2023-03-24T08:49:46.348Z,68.90
2023-03-24T08:52:12.990Z,68.80
2023-03-24T08:54:39.746Z,68.70
2023-03-24T08:57:06.681Z,68.50
2023-03-24T08:59:33.347Z,68.40
2023-03-24T09:02:00.115Z,68.30
2023-03-24T09:04:27.291Z,68.10
2023-03-24T09:07:01.690Z,68.10
2023-03-24T09:09:30.806Z,68.10
2023-03-24T09:11:57.431Z,67.90
2023-03-24T09:14:24.203Z,67.80
2023-03-24T09:16:51.394Z,67.70
2023-03-24T09:19:18.312Z,67.20
2023-03-24T09:21:48.757Z,67.10
2023-03-24T09:24:15.920Z,66.90
2023-03-24T09:26:42.552Z,66.50
2023-03-24T09:29:09.178Z,66.30
2023-03-24T09:31:35.864Z,65.90
2023-03-24T09:34:04.244Z,65.70
2023-03-24T09:36:31.284Z,65.60
2023-03-24T09:38:58.183Z,65.70
2023-03-24T09:41:31.871Z,65.50
2023-03-24T09:44:21.606Z,65.40
2023-03-24T09:46:56.890Z,65.60
2023-03-24T09:49:28.172Z,65.80
2023-03-24T09:52:05.219Z,66.00
2023-03-24T09:54:41.269Z,66.20
2023-03-24T09:57:20.651Z,66.30
2023-03-24T09:59:47.425Z,66.40
2023-03-24T10:02:16.867Z,66.50
2023-03-24T10:04:43.451Z,66.50
2023-03-24T10:08:02.677Z,66.30
2023-03-24T10:10:49.214Z,66.10
2023-03-24T10:13:25.566Z,66.00
2023-03-24T10:16:15.465Z,65.90
2023-03-24T10:19:31.793Z,65.70
2023-03-24T10:22:33.041Z,65.60
2023-03-24T10:25:08.721Z,65.40
2023-03-24T10:27:41.750Z,65.30
2023-03-24T10:30:22.464Z,65.30
2023-03-24T10:32:49.262Z,64.90
2023-03-24T10:35:26.938Z,64.90
2023-03-24T10:37:57.197Z,64.80
2023-03-24T10:40:33.348Z,64.80
2023-03-24T10:43:07.343Z,64.10
2023-03-24T10:45:39.635Z,63.80
2023-03-24T10:48:07.446Z,63.60
2023-03-24T10:50:36.052Z,63.60
2023-03-24T10:53:10.023Z,63.80
2023-03-24T10:55:39.166Z,64.30
2023-03-24T10:58:19.647Z,64.60
2023-03-24T11:00:47.770Z,65.10
2023-03-24T11:03:36.712Z,65.50
2023-03-24T11:06:05.080Z,65.30
2023-03-24T11:08:36.845Z,64.90
2023-03-24T11:11:15.459Z,64.60
2023-03-24T11:13:42.853Z,64.20
2023-03-24T11:16:17.066Z,64.10
2023-03-24T11:19:04.379Z,63.90
2023-03-24T11:21:34.858Z,63.80
2023-03-24T11:24:04.217Z,63.90
2023-03-24T11:26:39.164Z,64.10
2023-03-24T11:29:21.936Z,64.20
2023-03-24T11:31:54.864Z,64.50
2023-03-24T11:34:42.144Z,64.60
2023-03-24T11:37:14.330Z,64.90
2023-03-24T11:39:40.993Z,65.50
2023-03-24T11:42:10.541Z,65.60
2023-03-24T11:44:50.671Z,65.70
2023-03-24T11:47:27.387Z,65.60
2023-03-24T11:50:12.257Z,65.30
2023-03-24T11:52:43.863Z,65.10
2023-03-24T11:55:35.719Z,65.00
2023-03-24T11:58:33.365Z,64.60
2023-03-24T12:01:26.518Z,64.90
2023-03-24T12:03:58.755Z,65.20
2023-03-24T12:07:02.747Z,65.60
2023-03-24T12:09:38.110Z,65.80
2023-03-24T12:12:21.767Z,65.60
2023-03-24T12:14:51.120Z,65.80
2023-03-24T12:17:23.852Z,65.90
2023-03-24T12:20:01.972Z,65.70
2023-03-24T12:22:59.606Z,65.30
2023-03-24T12:26:08.489Z,64.60
2023-03-24T12:29:01.484Z,64.10
2023-03-24T12:31:55.487Z,63.40
2023-03-24T12:34:46.033Z,63.00
2023-03-24T12:37:47.359Z,62.40
2023-03-24T12:40:46.617Z,62.20
2023-03-24T12:43:39.983Z,61.90
2023-03-24T12:46:16.288Z,61.80
2023-03-24T12:48:51.894Z,61.00
2023-03-24T12:51:33.609Z,60.90
2023-03-24T12:54:36.691Z,60.40
2023-03-24T12:57:13.654Z,60.10
2023-03-24T12:59:57.729Z,60.10
2023-03-24T13:02:31.691Z,60.40
2023-03-24T13:05:05.496Z,60.50
2023-03-24T13:07:43.915Z,61.00
2023-03-24T13:10:22.869Z,61.60
2023-03-24T13:13:02.516Z,61.60
2023-03-24T13:15:34.473Z,61.80
2023-03-24T13:18:09.825Z,62.10
2023-03-24T13:20:44.254Z,62.20
2023-03-24T13:23:34.336Z,62.30
2023-03-24T13:26:09.683Z,62.40
2023-03-24T13:28:48.327Z,62.50
2023-03-24T13:31:17.580Z,62.70
2023-03-24T13:33:45.277Z,62.70
2023-03-24T13:36:42.920Z,62.40
2023-03-24T13:39:16.528Z,62.10
2023-03-24T13:41:50.409Z,62.00
2023-03-24T13:44:24.049Z,62.30
2023-03-24T13:47:20.214Z,62.30
2023-03-24T13:50:07.309Z,62.10
2023-03-24T13:52:44.949Z,62.10
2023-03-24T13:55:36.876Z,62.30
2023-03-24T13:58:12.986Z,62.80
2023-03-24T14:01:10.899Z,62.90
2023-03-24T14:03:43.246Z,63.20
2023-03-24T14:06:38.780Z,63.70
2023-03-24T14:09:14.585Z,63.40
2023-03-24T14:11:45.437Z,63.50
2023-03-24T14:14:15.386Z,63.40
2023-03-24T14:16:43.715Z,63.20
2023-03-24T14:19:26.281Z,63.00
2023-03-24T14:22:44.012Z,63.10
2023-03-24T14:25:16.945Z,63.00
2023-03-24T14:27:47.289Z,63.40
2023-03-24T14:30:22.534Z,63.60
2023-03-24T14:32:52.719Z,63.60
2023-03-24T14:35:29.858Z,63.10
2023-03-24T14:38:16.068Z,62.70
2023-03-24T14:40:49.524Z,62.30
2023-03-24T14:43:18.083Z,61.90
2023-03-24T14:46:03.624Z,61.40
2023-03-24T14:48:40.299Z,61.00
2023-03-24T14:51:27.034Z,60.50
2023-03-24T14:53:58.032Z,60.40
2023-03-24T14:56:33.058Z,60.40
2023-03-24T14:59:04.916Z,60.40
2023-03-24T15:01:34.279Z,60.40
2023-03-24T15:04:05.067Z,60.50
2023-03-24T15:06:33.190Z,60.60
2023-03-24T15:09:07.488Z,60.70
2023-03-24T15:11:36.856Z,61.20
2023-03-24T15:14:13.884Z,61.20
2023-03-24T15:16:40.727Z,61.10
2023-03-24T15:19:17.609Z,61.00
2023-03-24T15:21:59.606Z,61.00
2023-03-24T15:24:35.407Z,61.20
2023-03-24T15:27:07.921Z,61.40
2023-03-24T15:29:36.454Z,61.50
2023-03-24T15:32:04.308Z,61.70
2023-03-24T15:34:35.991Z,61.60
2023-03-24T15:37:07.766Z,61.50
2023-03-24T15:39:37.003Z,61.60
2023-03-24T15:42:16.552Z,61.60
2023-03-24T15:44:43.548Z,61.50
2023-03-24T15:47:22.044Z,61.70
2023-03-24T15:50:05.541Z,61.80
2023-03-24T15:52:35.074Z,61.80
2023-03-24T15:55:30.333Z,61.90
2023-03-24T15:57:59.845Z,61.80
2023-03-24T16:00:37.254Z,61.90
2023-03-24T16:03:06.792Z,61.90
2023-03-24T16:05:34.658Z,61.90
2023-03-24T16:08:04.283Z,62.00
2023-03-24T16:10:42.604Z,62.00
2023-03-24T16:13:21.375Z,61.90
2023-03-24T16:16:07.817Z,62.00
2023-03-24T16:18:36.749Z,62.00
2023-03-24T16:21:15.830Z,62.10
2023-03-24T16:23:43.543Z,62.30
2023-03-24T16:26:20.717Z,62.30
2023-03-24T16:28:48.245Z,62.40
2023-03-24T16:31:25.065Z,62.30
2023-03-24T16:33:53.032Z,62.50
2023-03-24T16:36:21.973Z,62.50
2023-03-24T16:38:49.750Z,62.60
2023-03-24T16:41:16.463Z,62.60
2023-03-24T16:43:43.644Z,62.60
2023-03-24T16:46:21.213Z,62.60
2023-03-24T16:48:48.279Z,62.80
2023-03-24T16:51:16.520Z,62.80
2023-03-24T16:53:44.773Z,62.90
2023-03-24T16:56:14.494Z,63.00
2023-03-24T16:58:41.295Z,63.10
2023-03-24T17:01:33.360Z,63.10
2023-03-24T17:04:05.133Z,63.30
2023-03-24T17:06:32.924Z,63.40
2023-03-24T17:08:59.831Z,63.50
2023-03-24T17:11:33.413Z,63.70
2023-03-24T17:14:04.675Z,63.90
2023-03-24T17:16:36.334Z,64.00
2023-03-24T17:19:06.721Z,64.20
2023-03-24T17:21:56.678Z,64.30
2023-03-24T17:24:24.129Z,64.60
2023-03-24T17:26:51.107Z,64.60
2023-03-24T17:29:17.743Z,64.90
2023-03-24T17:31:44.508Z,65.00
2023-03-24T17:34:21.622Z,65.20
2023-03-24T17:36:50.694Z,65.50
2023-03-24T17:39:18.851Z,65.50
2023-03-24T17:41:45.689Z,65.70
2023-03-24T17:44:12.589Z,65.80
2023-03-24T17:46:39.272Z,66.00
2023-03-24T17:49:06.321Z,66.10
2023-03-24T17:51:33.443Z,66.30
2023-03-24T17:54:00.647Z,66.40
2023-03-24T17:56:27.307Z,66.50
2023-03-24T17:58:54.828Z,66.70
2023-03-24T18:01:21.846Z,66.80
2023-03-24T18:03:49.704Z,67.00
2023-03-24T18:06:17.202Z,67.10
2023-03-24T18:08:44.241Z,67.30
2023-03-24T18:11:14.341Z,67.30
2023-03-24T18:13:42.094Z,67.40
2023-03-24T18:16:20.648Z,67.50
2023-03-24T18:18:49.252Z,67.60
2023-03-24T18:21:16.032Z,67.60
2023-03-24T18:23:42.795Z,67.70
2023-03-24T18:26:09.610Z,67.80
2023-03-24T18:28:38.556Z,67.90
2023-03-24T18:31:13.260Z,68.00
2023-03-24T18:33:42.735Z,68.10
2023-03-24T18:36:10.265Z,68.10
2023-03-24T18:38:36.998Z,68.20
2023-03-24T18:41:06.577Z,68.30
2023-03-24T18:43:37.451Z,68.50
2023-03-24T18:46:05.704Z,68.60
2023-03-24T18:48:32.559Z,68.60
2023-03-24T18:50:59.168Z,68.60
2023-03-24T18:53:25.937Z,68.70
2023-03-24T18:55:52.652Z,68.90
2023-03-24T18:58:19.553Z,69.00
2023-03-24T19:00:51.897Z,69.10
2023-03-24T19:03:20.001Z,69.30
2023-03-24T19:05:46.873Z,69.30
2023-03-24T19:08:15.010Z,69.40
2023-03-24T19:10:43.314Z,69.50
2023-03-24T19:13:12.182Z,69.60
2023-03-24T19:15:39.490Z,69.60
2023-03-24T19:18:06.839Z,69.70
2023-03-24T19:20:35.056Z,69.70
2023-03-24T19:23:02.432Z,69.80
2023-03-24T19:25:29.143Z,69.90
2023-03-24T19:27:55.966Z,70.00
2023-03-24T19:30:22.646Z,70.30
2023-03-24T19:32:49.460Z,70.60
2023-03-24T19:35:16.664Z,70.80
2023-03-24T19:37:43.438Z,71.20
2023-03-24T19:40:15.539Z,71.40
2023-03-24T19:42:44.855Z,71.70
2023-03-24T19:45:13.783Z,71.90
2023-03-24T19:47:40.523Z,72.00
2023-03-24T19:50:08.443Z,71.80
2023-03-24T19:52:35.806Z,71.80
2023-03-24T19:55:03.498Z,71.90
2023-03-24T19:57:31.703Z,71.90
2023-03-24T19:59:59.106Z,71.80
2023-03-24T20:02:25.961Z,71.80
2023-03-24T20:04:55.154Z,71.70
2023-03-24T20:07:22.964Z,71.80
2023-03-24T20:09:49.687Z,71.90
2023-03-24T20:12:16.367Z,71.90
2023-03-24T20:14:43.326Z,71.90
2023-03-24T20:17:17.766Z,71.80
2023-03-24T20:19:45.348Z,72.00
2023-03-24T20:22:12.344Z,71.90
2023-03-24T20:24:39.221Z,71.90
2023-03-24T20:27:07.214Z,71.90
2023-03-24T20:29:34.204Z,71.90
2023-03-24T20:32:00.990Z,71.90
2023-03-24T20:34:27.809Z,71.90
2023-03-24T20:36:54.420Z,72.00
2023-03-24T20:39:21.083Z,72.00
2023-03-24T20:41:47.696Z,72.10
2023-03-24T20:44:14.351Z,72.20
2023-03-24T20:46:40.967Z,72.20
2023-03-24T20:49:09.549Z,72.30
2023-03-24T20:51:36.718Z,72.30
2023-03-24T20:54:05.618Z,72.30
2023-03-24T20:56:32.249Z,72.40
2023-03-24T20:58:58.856Z,72.40
2023-03-24T21:01:25.610Z,72.30
2023-03-24T21:03:53.221Z,72.30
2023-03-24T21:06:20.710Z,72.40
2023-03-24T21:08:48.241Z,72.40
2023-03-24T21:11:14.839Z,72.40
2023-03-24T21:13:41.605Z,72.40
2023-03-24T21:16:09.820Z,72.40
2023-03-24T21:18:37.562Z,72.50
2023-03-24T21:21:05.419Z,72.60
2023-03-24T21:23:34.154Z,72.50
2023-03-24T21:26:01.880Z,72.50
2023-03-24T21:28:30.837Z,72.50
2023-03-24T21:30:58.587Z,72.50
2023-03-24T21:33:25.472Z,72.40
2023-03-24T21:35:55.356Z,72.40
2023-03-24T21:38:22.140Z,72.40
2023-03-24T21:40:58.101Z,72.30
2023-03-24T21:43:27.092Z,72.20
2023-03-24T21:45:54.428Z,72.00
2023-03-24T21:48:22.087Z,72.00
2023-03-24T21:50:55.159Z,72.10
2023-03-24T21:53:22.828Z,72.20
2023-03-24T21:56:04.970Z,72.30
2023-03-24T21:58:32.811Z,72.60
2023-03-24T22:01:00.369Z,72.50
2023-03-24T22:03:27.786Z,72.70
2023-03-24T22:05:57.180Z,72.70
2023-03-24T22:08:26.467Z,72.60
2023-03-24T22:11:00.975Z,72.60
2023-03-24T22:13:28.843Z,72.30
2023-03-24T22:15:57.101Z,72.00
2023-03-24T22:18:24.762Z,71.80
2023-03-24T22:21:04.111Z,71.70
2023-03-24T22:23:36.911Z,71.70
2023-03-24T22:26:09.588Z,71.90
2023-03-24T22:28:37.100Z,71.90
2023-03-24T22:31:06.373Z,72.00
2023-03-24T22:33:33.143Z,72.10
2023-03-24T22:36:00.869Z,72.20
2023-03-24T22:38:28.347Z,72.20
2023-03-24T22:41:03.729Z,72.20
2023-03-24T22:43:30.639Z,72.40
2023-03-24T22:45:57.400Z,72.40
2023-03-24T22:48:24.519Z,72.50
2023-03-24T22:50:52.141Z,72.50
2023-03-24T22:53:18.735Z,72.60
2023-03-24T22:55:45.364Z,72.70
2023-03-24T22:58:13.340Z,72.80
2023-03-24T23:00:41.376Z,72.80
2023-03-24T23:03:08.653Z,72.90
2023-03-24T23:05:40.054Z,73.00
2023-03-24T23:08:07.531Z,73.20
2023-03-24T23:10:34.206Z,73.20
2023-03-24T23:13:00.840Z,73.20
2023-03-24T23:15:27.445Z,73.30
2023-03-24T23:17:54.127Z,73.30
2023-03-24T23:20:20.968Z,73.40
2023-03-24T23:22:47.924Z,73.50
2023-03-24T23:25:15.570Z,73.50
2023-03-24T23:27:42.247Z,73.50
2023-03-24T23:30:11.033Z,73.40
2023-03-24T23:32:39.004Z,73.50
2023-03-24T23:35:06.958Z,73.60
2023-03-24T23:37:34.666Z,73.80
2023-03-24T23:40:09.442Z,73.80
2023-03-24T23:42:41.058Z,73.90
2023-03-24T23:45:09.536Z,74.00
2023-03-24T23:47:36.745Z,73.90
2023-03-24T23:50:06.191Z,74.00
2023-03-24T23:52:33.627Z,74.10
2023-03-24T23:55:02.020Z,74.10
2023-03-24T23:57:29.322Z,74.20
2023-03-24T23:59:55.927Z,74.20
